createdAt,value
2019-04-26T00:06:30.418Z,85.90
2019-04-26T00:09:15.609Z,86.10
2019-04-26T00:15:05.597Z,86.50
2019-04-26T00:17:43.285Z,86.30
2019-04-26T00:20:12.037Z,86.60
2019-04-26T00:22:47.256Z,86.70
2019-04-26T00:25:28.226Z,86.60
2019-04-26T00:30:51.702Z,86.90
2019-04-26T00:33:19.450Z,87.30
2019-04-26T00:35:48.141Z,87.30
2019-04-26T00:38:16.081Z,87.10
2019-04-26T00:40:43.973Z,87.40
2019-04-26T00:43:34.051Z,87.40
2019-04-26T00:46:23.402Z,87.30
2019-04-26T00:48:51.635Z,87.60
2019-04-26T00:51:19.363Z,87.90
2019-04-26T00:53:46.966Z,88.30
2019-04-26T00:59:04.844Z,88.40
2019-04-26T01:01:37.194Z,88.40
2019-04-26T01:04:07.205Z,88.40
2019-04-26T01:09:30.758Z,88.60
2019-04-26T01:11:58.059Z,88.60
2019-04-26T01:14:26.170Z,88.50
2019-04-26T01:16:53.891Z,88.50
2019-04-26T01:19:42.444Z,88.60
2019-04-26T01:22:32.237Z,88.60
2019-04-26T01:25:21.247Z,88.60
2019-04-26T01:27:48.826Z,88.80
2019-04-26T01:30:18.238Z,88.60
2019-04-26T01:32:56.629Z,88.50
2019-04-26T01:35:26.314Z,88.40
2019-04-26T01:38:14.254Z,88.40
2019-04-26T01:43:59.124Z,88.30
2019-04-26T01:46:48.308Z,88.30
2019-04-26T01:49:37.307Z,88.40
2019-04-26T01:52:17.813Z,88.30
2019-04-26T01:54:45.304Z,88.10
2019-04-26T02:09:28.560Z,87.80
2019-04-26T02:11:55.491Z,87.80
2019-04-26T02:17:16.221Z,88.10
2019-04-26T02:19:43.919Z,88.30
2019-04-26T02:22:31.952Z,88.50
2019-04-26T02:24:59.394Z,88.20
2019-04-26T02:27:46.120Z,88.60
2019-04-26T02:30:13.534Z,88.60
2019-04-26T02:32:40.908Z,88.40
2019-04-26T02:35:09.301Z,88.40
2019-04-26T02:43:28.629Z,88.50
2019-04-26T02:49:28.588Z,89.20
2019-04-26T02:52:29.064Z,89.20
2019-04-26T02:55:17.783Z,89.10
2019-04-26T02:57:53.374Z,89.00
2019-04-26T03:00:20.515Z,89.00
2019-04-26T03:03:10.291Z,88.80
2019-04-26T03:06:08.833Z,88.90
2019-04-26T03:08:57.042Z,88.70
2019-04-26T03:11:45.768Z,88.40
2019-04-26T03:14:54.202Z,88.90
2019-04-26T03:24:07.539Z,88.90
2019-04-26T03:27:15.019Z,88.90
2019-04-26T03:33:53.907Z,89.10
2019-04-26T03:43:34.420Z,88.70
2019-04-26T03:46:43.209Z,88.60
2019-04-26T03:53:10.939Z,87.90
2019-04-26T03:56:03.292Z,87.60
2019-04-26T04:07:39.146Z,87.30
2019-04-26T04:10:26.153Z,87.80
2019-04-26T04:16:24.573Z,87.10
2019-04-26T04:19:14.329Z,87.00
2019-04-26T04:22:06.485Z,87.10
2019-04-26T04:24:55.870Z,86.90
2019-04-26T04:33:28.503Z,87.20
2019-04-26T04:36:09.835Z,87.60
2019-04-26T04:38:49.589Z,88.20
2019-04-26T04:45:02.857Z,89.70
2019-04-26T04:47:51.733Z,90.70
2019-04-26T04:50:52.606Z,91.90
2019-04-26T04:56:12.713Z,92.80
2019-04-26T04:58:52.914Z,93.10
2019-04-26T05:01:52.662Z,93.40
2019-04-26T05:04:32.660Z,94.00
2019-04-26T05:10:26.782Z,95.10
2019-04-26T05:13:06.902Z,95.00
2019-04-26T05:15:54.927Z,95.10
2019-04-26T05:18:56.215Z,95.50
2019-04-26T05:21:35.852Z,95.80
2019-04-26T05:24:16.310Z,96.10
2019-04-26T05:27:02.198Z,96.40
2019-04-26T05:29:42.633Z,95.90
2019-04-26T05:32:22.304Z,95.90
2019-04-26T05:35:02.349Z,96.20
2019-04-26T05:37:42.866Z,96.30
2019-04-26T05:40:22.682Z,96.10
2019-04-26T05:46:06.347Z,95.60
2019-04-26T05:48:51.879Z,95.60
2019-04-26T05:51:35.822Z,96.20
2019-04-26T05:54:38.905Z,96.10
2019-04-26T05:57:21.772Z,96.10
2019-04-26T06:06:27.111Z,96.60
2019-04-26T06:09:29.756Z,96.60
2019-04-26T06:12:15.699Z,96.60
2019-04-26T06:18:40.528Z,96.60
2019-04-26T06:21:25.807Z,96.60
2019-04-26T06:24:06.054Z,96.60
2019-04-26T06:30:14.269Z,96.60
2019-04-26T06:33:00.357Z,96.60
2019-04-26T06:38:28.568Z,96.60
2019-04-26T06:41:08.350Z,96.60
2019-04-26T06:43:52.143Z,96.60
2019-04-26T06:46:55.132Z,96.60
2019-04-26T06:49:52.452Z,96.60
2019-04-26T06:52:32.293Z,96.60
2019-04-26T06:55:17.978Z,96.60
2019-04-26T07:01:21.050Z,96.60
2019-04-26T07:04:00.744Z,96.60
2019-04-26T07:06:40.877Z,96.60
2019-04-26T07:09:20.317Z,96.60
2019-04-26T07:15:13.874Z,96.60
2019-04-26T07:17:53.523Z,96.60
2019-04-26T07:20:35.281Z,96.60
2019-04-26T07:23:20.442Z,96.60
2019-04-26T07:26:00.366Z,96.60
2019-04-26T07:28:47.239Z,96.60
2019-04-26T07:31:27.481Z,96.60
2019-04-26T07:34:09.522Z,96.30
2019-04-26T07:36:49.274Z,96.60
2019-04-26T07:42:58.044Z,96.20
2019-04-26T07:45:38.559Z,96.40
2019-04-26T07:48:18.988Z,96.20
2019-04-26T07:50:59.396Z,96.10
2019-04-26T07:53:39.420Z,96.20
2019-04-26T07:56:19.438Z,95.40
2019-04-26T07:58:59.258Z,95.10
2019-04-26T08:01:58.990Z,95.80
2019-04-26T08:04:38.898Z,95.80
2019-04-26T08:07:18.628Z,95.40
2019-04-26T08:10:04.914Z,94.10
2019-04-26T08:13:15.277Z,93.80
2019-04-26T08:19:02.723Z,94.50
2019-04-26T08:21:48.147Z,93.40
2019-04-26T08:24:28.265Z,93.80
2019-04-26T08:27:18.883Z,93.50
2019-04-26T08:29:50.946Z,93.00
2019-04-26T08:32:32.180Z,92.70
2019-04-26T08:38:26.464Z,93.10
2019-04-26T08:41:08.130Z,93.80
2019-04-26T08:46:52.513Z,91.80
2019-04-26T08:49:56.460Z,92.10
2019-04-26T08:52:37.238Z,92.00
2019-04-26T08:55:17.609Z,92.30
2019-04-26T08:57:58.714Z,91.40
2019-04-26T09:00:39.462Z,92.00
2019-04-26T09:06:00.592Z,92.50
2019-04-26T09:08:43.464Z,92.30
2019-04-26T09:11:30.002Z,92.60
2019-04-26T09:14:08.596Z,91.50
2019-04-26T09:16:50.390Z,92.10
2019-04-26T09:19:31.914Z,92.90
2019-04-26T09:22:17.983Z,92.80
2019-04-26T09:25:02.596Z,92.50
2019-04-26T09:31:28.637Z,93.80
2019-04-26T09:36:48.239Z,93.00
2019-04-26T09:39:28.617Z,91.90
2019-04-26T09:42:28.168Z,91.90
2019-04-26T09:45:08.658Z,92.40
2019-04-26T09:47:52.396Z,92.60
2019-04-26T09:50:44.261Z,91.40
2019-04-26T09:53:24.311Z,92.30
2019-04-26T09:56:04.294Z,93.20
2019-04-26T09:58:44.962Z,91.80
2019-04-26T10:01:25.971Z,91.30
2019-04-26T10:04:05.799Z,93.00
2019-04-26T10:06:45.783Z,91.70
2019-04-26T10:09:27.780Z,89.90
2019-04-26T10:18:08.119Z,90.60
2019-04-26T10:20:48.048Z,90.10
2019-04-26T10:23:28.031Z,91.10
2019-04-26T10:26:08.344Z,91.00
2019-04-26T10:28:50.682Z,91.10
2019-04-26T10:31:30.292Z,90.80
2019-04-26T10:34:11.820Z,91.40
2019-04-26T10:36:52.411Z,91.30
2019-04-26T10:39:32.458Z,91.40
2019-04-26T10:45:19.653Z,91.10
2019-04-26T10:47:59.829Z,91.00
2019-04-26T10:50:39.774Z,91.90
2019-04-26T10:56:45.751Z,89.10
2019-04-26T10:59:35.459Z,88.20
2019-04-26T11:02:17.711Z,86.90
2019-04-26T11:04:57.467Z,85.40
2019-04-26T11:07:37.195Z,85.20
2019-04-26T11:10:17.673Z,85.60
2019-04-26T11:12:57.365Z,87.00
2019-04-26T11:15:38.245Z,86.50
2019-04-26T11:18:19.938Z,87.70
2019-04-26T11:21:00.471Z,87.30
2019-04-26T11:23:41.006Z,87.20
2019-04-26T11:26:22.076Z,88.40
2019-04-26T11:29:02.140Z,87.30
2019-04-26T11:31:42.483Z,87.30
2019-04-26T11:34:23.718Z,87.80
2019-04-26T11:37:04.741Z,88.30
2019-04-26T11:39:44.753Z,86.90
2019-04-26T11:42:24.425Z,89.60
2019-04-26T11:45:06.413Z,87.60
2019-04-26T11:47:55.739Z,87.30
2019-04-26T11:50:28.609Z,87.90
2019-04-26T11:53:10.152Z,86.70
2019-04-26T11:55:50.992Z,84.60
2019-04-26T11:58:30.784Z,84.50
2019-04-26T12:01:12.693Z,83.70
2019-04-26T12:03:55.652Z,81.10
2019-04-26T12:09:47.255Z,80.40
2019-04-26T12:12:37.861Z,77.60
2019-04-26T12:15:29.718Z,78.80
2019-04-26T12:20:28.510Z,80.20
2019-04-26T12:26:42.667Z,82.60
2019-04-26T12:29:23.374Z,82.80
2019-04-26T12:32:04.051Z,81.70
2019-04-26T12:37:40.646Z,83.60
2019-04-26T12:40:20.762Z,81.70
2019-04-26T12:43:01.041Z,81.70
2019-04-26T12:48:30.338Z,82.90
2019-04-26T12:51:12.034Z,82.80
2019-04-26T12:53:52.877Z,82.20
2019-04-26T12:56:36.144Z,82.40
2019-04-26T12:59:16.415Z,83.10
2019-04-26T13:02:05.510Z,82.80
2019-04-26T13:04:40.521Z,83.00
2019-04-26T13:07:23.944Z,84.60
2019-04-26T13:10:22.371Z,85.10
2019-04-26T13:13:09.002Z,86.20
2019-04-26T13:16:08.027Z,87.50
2019-04-26T13:18:48.767Z,87.80
2019-04-26T13:21:29.041Z,87.10
2019-04-26T13:24:08.942Z,86.50
2019-04-26T13:26:50.263Z,87.20
2019-04-26T13:29:31.103Z,83.60
2019-04-26T13:35:11.338Z,83.00
2019-04-26T13:37:51.262Z,83.50
2019-04-26T13:40:34.302Z,85.10
2019-04-26T13:43:14.263Z,84.00
2019-04-26T13:46:13.674Z,82.20
2019-04-26T13:48:58.268Z,80.90
2019-04-26T13:51:39.056Z,79.40
2019-04-26T13:54:21.033Z,81.00
2019-04-26T13:57:10.149Z,80.30
2019-04-26T14:00:11.674Z,76.80
2019-04-26T14:02:56.870Z,75.60
2019-04-26T14:05:36.716Z,77.40
2019-04-26T14:08:17.686Z,75.00
2019-04-26T14:10:49.725Z,74.50
2019-04-26T14:13:20.716Z,76.50
2019-04-26T14:15:51.627Z,76.70
2019-04-26T14:18:15.857Z,75.50
2019-04-26T14:20:43.819Z,77.60
2019-04-26T14:23:20.704Z,78.10
2019-04-26T14:26:17.025Z,75.60
2019-04-26T14:28:44.432Z,75.60
2019-04-26T14:31:12.271Z,76.60
2019-04-26T14:33:40.640Z,76.50
2019-04-26T14:36:17.515Z,77.10
2019-04-26T14:38:39.868Z,73.80
2019-04-26T14:41:06.588Z,74.60
2019-04-26T14:43:41.153Z,72.50
2019-04-26T14:46:03.282Z,73.30
2019-04-26T14:48:36.065Z,73.50
2019-04-26T14:51:07.745Z,72.90
2019-04-26T14:53:32.194Z,73.00
2019-04-26T14:55:58.226Z,74.00
2019-04-26T14:58:30.319Z,72.70
2019-04-26T15:00:58.679Z,72.50
2019-04-26T15:03:55.174Z,73.90
2019-04-26T15:06:23.840Z,74.60
2019-04-26T15:08:53.083Z,73.60
2019-04-26T15:11:20.414Z,72.30
2019-04-26T15:13:47.465Z,73.90
2019-04-26T15:16:14.773Z,71.20
2019-04-26T15:18:42.709Z,72.10
2019-04-26T15:21:10.174Z,72.30
2019-04-26T15:23:37.450Z,73.90
2019-04-26T15:26:04.794Z,75.00
2019-04-26T15:28:33.156Z,75.30
2019-04-26T15:31:02.167Z,75.00
2019-04-26T15:33:29.159Z,73.90
2019-04-26T15:35:56.008Z,73.70
2019-04-26T15:38:23.896Z,73.70
2019-04-26T15:41:19.643Z,73.80
2019-04-26T15:44:05.143Z,74.60
2019-04-26T15:46:51.009Z,75.30
2019-04-26T15:49:46.945Z,73.70
2019-04-26T15:52:14.629Z,73.20
2019-04-26T15:54:42.495Z,74.10
2019-04-26T15:57:10.073Z,73.70
2019-04-26T15:59:37.494Z,73.80
2019-04-26T16:02:05.202Z,72.80
2019-04-26T16:04:32.826Z,73.20
2019-04-26T16:06:59.988Z,73.70
2019-04-26T16:09:27.511Z,73.90
2019-04-26T16:11:55.254Z,72.20
2019-04-26T16:14:26.365Z,71.80
2019-04-26T16:16:52.466Z,73.20
2019-04-26T16:19:20.181Z,72.60
2019-04-26T16:21:48.127Z,73.90
2019-04-26T16:24:16.866Z,72.50
2019-04-26T16:26:51.000Z,72.90
2019-04-26T16:29:29.016Z,72.10
2019-04-26T16:32:16.748Z,73.00
2019-04-26T16:34:47.551Z,73.20
2019-04-26T16:37:14.939Z,73.20
2019-04-26T16:39:44.577Z,73.10
2019-04-26T16:42:13.824Z,74.00
2019-04-26T16:44:44.937Z,73.20
2019-04-26T16:47:13.107Z,72.80
2019-04-26T16:49:44.130Z,72.20
2019-04-26T16:52:10.403Z,72.20
2019-04-26T16:54:38.304Z,72.30
2019-04-26T16:57:11.212Z,71.40
2019-04-26T16:59:34.556Z,72.50
2019-04-26T17:02:02.810Z,72.70
2019-04-26T17:04:36.252Z,73.50
2019-04-26T17:07:04.953Z,73.70
2019-04-26T17:09:54.512Z,73.40
2019-04-26T17:12:02.510Z,73.20
2019-04-26T17:14:30.152Z,72.90
2019-04-26T17:16:57.510Z,73.10
2019-04-26T17:19:29.706Z,73.10
2019-04-26T17:22:23.820Z,73.80
2019-04-26T17:24:55.625Z,74.20
2019-04-26T17:27:22.847Z,74.20
2019-04-26T17:29:50.209Z,74.10
2019-04-26T17:32:17.548Z,74.00
2019-04-26T17:34:45.100Z,73.50
2019-04-26T17:37:16.897Z,73.70
2019-04-26T17:39:41.742Z,73.40
2019-04-26T17:42:10.512Z,75.50
2019-04-26T17:44:37.587Z,77.10
2019-04-26T17:47:05.141Z,78.50
2019-04-26T17:49:34.569Z,80.00
2019-04-26T17:52:04.923Z,80.80
2019-04-26T17:54:46.194Z,81.90
2019-04-26T17:57:04.180Z,82.60
2019-04-26T17:59:34.672Z,83.30
2019-04-26T18:02:01.444Z,83.80
2019-04-26T18:04:36.927Z,84.70
2019-04-26T18:07:05.463Z,85.10
2019-04-26T18:09:42.953Z,85.70
2019-04-26T18:12:03.476Z,86.10
2019-04-26T18:14:30.464Z,86.40
2019-04-26T18:17:08.367Z,86.60
2019-04-26T18:19:45.703Z,86.60
2019-04-26T18:22:38.753Z,87.10
2019-04-26T18:25:11.283Z,87.30
2019-04-26T18:27:38.753Z,87.30
2019-04-26T18:30:11.550Z,87.40
2019-04-26T18:32:42.210Z,87.60
2019-04-26T18:35:09.251Z,87.70
2019-04-26T18:37:39.363Z,87.80
2019-04-26T18:40:06.043Z,87.90
2019-04-26T18:42:37.465Z,88.00
2019-04-26T18:45:05.577Z,87.80
2019-04-26T18:47:37.855Z,87.80
2019-04-26T18:50:05.871Z,87.90
2019-04-26T18:52:37.238Z,88.10
2019-04-26T18:55:29.021Z,88.10
2019-04-26T18:57:58.194Z,88.30
2019-04-26T19:00:30.563Z,88.30
2019-04-26T19:03:00.018Z,88.50
2019-04-26T19:05:30.183Z,88.80
2019-04-26T19:07:57.491Z,89.10
2019-04-26T19:10:25.714Z,89.60
2019-04-26T19:13:00.117Z,89.80
2019-04-26T19:15:43.873Z,90.00
2019-04-26T19:18:22.058Z,90.20
2019-04-26T19:21:05.494Z,90.60
2019-04-26T19:23:33.086Z,91.10
2019-04-26T19:26:01.860Z,91.20
2019-04-26T19:28:29.702Z,91.30
2019-04-26T19:30:57.399Z,91.60
2019-04-26T19:33:24.653Z,91.90
2019-04-26T19:35:52.972Z,92.00
2019-04-26T19:38:21.250Z,92.10
2019-04-26T19:40:49.239Z,92.20
2019-04-26T19:43:28.312Z,92.30
2019-04-26T19:45:55.432Z,92.30
2019-04-26T19:48:27.785Z,92.40
2019-04-26T19:50:59.307Z,92.60
2019-04-26T19:53:47.359Z,92.80
2019-04-26T19:56:24.868Z,92.90
2019-04-26T19:58:57.485Z,92.90
2019-04-26T20:01:20.935Z,93.10
2019-04-26T20:03:52.155Z,93.30
2019-04-26T20:06:19.881Z,93.40
2019-04-26T20:08:49.548Z,93.60
2019-04-26T20:11:18.945Z,93.80
2019-04-26T20:13:46.912Z,93.80
2019-04-26T20:16:14.223Z,94.00
2019-04-26T20:18:42.162Z,94.00
2019-04-26T20:21:12.641Z,94.00
2019-04-26T20:23:43.818Z,94.00
2019-04-26T20:26:09.026Z,93.70
2019-04-26T20:28:37.530Z,93.80
2019-04-26T20:31:37.660Z,93.80
2019-04-26T20:34:05.609Z,93.80
2019-04-26T20:36:40.694Z,93.70
2019-04-26T20:39:06.344Z,93.50
2019-04-26T20:41:34.271Z,93.50
2019-04-26T20:44:07.028Z,93.30
2019-04-26T20:46:34.463Z,93.10
2019-04-26T20:49:01.375Z,92.50
2019-04-26T20:51:29.576Z,92.40
2019-04-26T20:53:57.028Z,91.80
2019-04-26T20:56:24.305Z,91.80
2019-04-26T20:58:52.250Z,91.70
2019-04-26T21:01:19.637Z,91.40
2019-04-26T21:03:46.991Z,90.90
2019-04-26T21:06:14.009Z,90.80
2019-04-26T21:08:42.457Z,90.80
2019-04-26T21:11:11.184Z,90.60
2019-04-26T21:13:38.545Z,90.60
2019-04-26T21:16:10.456Z,90.90
2019-04-26T21:18:40.196Z,91.00
2019-04-26T21:21:10.454Z,91.40
2019-04-26T21:23:39.846Z,92.00
2019-04-26T21:26:16.522Z,92.50
2019-04-26T21:28:56.648Z,93.10
2019-04-26T21:31:49.251Z,93.70
2019-04-26T21:34:20.533Z,94.20
2019-04-26T21:36:58.267Z,94.70
2019-04-26T21:39:35.279Z,95.30
2019-04-26T21:42:03.554Z,95.60
2019-04-26T21:44:30.916Z,95.90
2019-04-26T21:46:58.957Z,95.90
2019-04-26T21:49:26.177Z,96.00
2019-04-26T21:51:54.493Z,96.50
2019-04-26T21:54:21.664Z,96.40
2019-04-26T21:56:49.860Z,96.60
2019-04-26T21:59:17.035Z,96.60
2019-04-26T22:01:48.208Z,96.60
2019-04-26T22:04:14.427Z,96.60
2019-04-26T22:06:42.655Z,96.60
2019-04-26T22:09:33.321Z,96.60
2019-04-26T22:12:00.439Z,96.60
2019-04-26T22:14:31.040Z,96.60
2019-04-26T22:17:05.260Z,96.60
2019-04-26T22:20:06.959Z,96.60
2019-04-26T22:22:55.410Z,96.60
2019-04-26T22:25:25.282Z,96.60
2019-04-26T22:27:53.992Z,96.60
2019-04-26T22:30:28.418Z,96.60
2019-04-26T22:32:58.339Z,96.60
2019-04-26T22:35:24.212Z,96.60
2019-04-26T22:37:51.405Z,96.60
2019-04-26T22:40:19.808Z,96.60
2019-04-26T22:42:49.632Z,96.60
2019-04-26T22:45:23.522Z,96.60
2019-04-26T22:48:11.515Z,96.60
2019-04-26T22:50:39.661Z,96.60
2019-04-26T22:53:06.819Z,96.60
2019-04-26T22:55:34.367Z,96.60
2019-04-26T22:58:03.265Z,96.60
2019-04-26T23:00:36.591Z,96.60
2019-04-26T23:03:07.157Z,96.60
2019-04-26T23:05:35.621Z,96.60
2019-04-26T23:08:03.529Z,96.60
2019-04-26T23:10:37.644Z,96.60
2019-04-26T23:13:13.910Z,96.60
2019-04-26T23:16:00.740Z,96.60
2019-04-26T23:18:59.892Z,96.60
2019-04-26T23:21:30.098Z,96.60
2019-04-26T23:23:57.783Z,96.50
2019-04-26T23:26:24.985Z,96.20
2019-04-26T23:28:53.527Z,95.90
2019-04-26T23:31:20.480Z,95.70
2019-04-26T23:33:47.723Z,95.30
2019-04-26T23:36:18.352Z,95.10
2019-04-26T23:38:44.221Z,95.00
2019-04-26T23:41:11.333Z,95.20
2019-04-26T23:43:39.300Z,95.60
2019-04-26T23:46:07.001Z,95.30
2019-04-26T23:48:34.098Z,95.30
2019-04-26T23:51:04.820Z,95.30
2019-04-26T23:53:30.674Z,95.20
2019-04-26T23:55:57.622Z,95.00
2019-04-26T23:58:24.979Z,95.00
